createdAt,value
2022-12-24T00:01:34.381Z,8.77
2022-12-24T00:06:27.554Z,8.72
2022-12-24T00:11:25.104Z,8.73
2022-12-24T00:16:20.557Z,8.71
2022-12-24T00:21:13.415Z,8.60
2022-12-24T00:26:04.696Z,8.67
2022-12-24T00:30:59.082Z,8.63
2022-12-24T00:35:53.910Z,8.62
2022-12-24T00:40:44.639Z,8.63
2022-12-24T00:45:36.064Z,8.60
2022-12-24T00:50:30.336Z,8.58
2022-12-24T00:55:21.665Z,8.51
2022-12-24T01:00:13.844Z,8.49
2022-12-24T01:05:16.665Z,8.44
2022-12-24T01:10:15.265Z,8.49
2022-12-24T01:15:07.485Z,8.48
2022-12-24T01:19:58.936Z,8.42
2022-12-24T01:24:52.779Z,8.44
2022-12-24T01:29:45.590Z,8.42
2022-12-24T01:34:39.719Z,8.33
2022-12-24T01:39:31.532Z,8.32
2022-12-24T01:44:35.794Z,8.31
2022-12-24T01:49:31.078Z,8.37
2022-12-24T01:54:26.819Z,8.36
2022-12-24T01:59:20.326Z,8.47
2022-12-24T02:04:16.930Z,8.52
2022-12-24T02:09:12.684Z,8.51
2022-12-24T02:14:08.016Z,8.53
2022-12-24T02:19:08.965Z,8.57
2022-12-24T02:24:33.218Z,8.58
2022-12-24T02:29:43.291Z,8.59
2022-12-24T02:34:43.452Z,8.67
2022-12-24T02:39:42.053Z,8.69
2022-12-24T02:44:39.789Z,8.60
2022-12-24T02:49:31.212Z,8.68
2022-12-24T02:54:25.993Z,8.66
2022-12-24T02:59:55.282Z,8.68
2022-12-24T03:05:00.928Z,8.70
2022-12-24T03:10:07.064Z,8.78
2022-12-24T03:14:57.945Z,8.80
2022-12-24T03:19:48.581Z,8.84
2022-12-24T03:24:39.806Z,8.74
2022-12-24T03:29:34.563Z,8.91
2022-12-24T03:34:28.579Z,9.02
2022-12-24T03:39:22.457Z,9.09
2022-12-24T03:44:18.353Z,9.17
2022-12-24T03:49:14.509Z,9.17
2022-12-24T03:54:09.318Z,9.17
2022-12-24T03:59:02.529Z,9.31
2022-12-24T04:03:53.726Z,9.36
2022-12-24T04:08:50.404Z,9.40
2022-12-24T04:13:42.416Z,9.42
2022-12-24T04:18:36.653Z,9.49
2022-12-24T04:23:32.837Z,9.49
2022-12-24T04:28:28.409Z,9.51
2022-12-24T04:33:21.118Z,9.54
2022-12-24T04:38:13.439Z,9.53
2022-12-24T04:43:05.023Z,9.52
2022-12-24T04:47:59.229Z,9.53
2022-12-24T04:52:50.359Z,9.49
2022-12-24T04:57:48.456Z,9.57
2022-12-24T05:02:43.113Z,9.57
2022-12-24T05:07:37.912Z,9.63
2022-12-24T05:12:31.079Z,9.61
2022-12-24T05:17:24.534Z,9.60
2022-12-24T05:22:30.502Z,9.62
2022-12-24T05:27:26.047Z,9.61
2022-12-24T05:32:19.266Z,9.57
2022-12-24T05:37:13.795Z,9.60
2022-12-24T05:42:08.295Z,9.53
2022-12-24T05:47:01.619Z,9.59
2022-12-24T05:51:52.959Z,9.59
2022-12-24T05:56:46.922Z,9.63
2022-12-24T06:01:45.992Z,9.56
2022-12-24T06:06:40.642Z,9.64
2022-12-24T06:11:32.783Z,9.65
2022-12-24T06:16:27.817Z,9.60
2022-12-24T06:21:19.999Z,9.56
2022-12-24T06:26:16.877Z,9.50
2022-12-24T06:31:18.876Z,9.38
2022-12-24T06:36:17.088Z,9.29
2022-12-24T06:41:10.160Z,9.16
2022-12-24T06:46:08.700Z,9.12
2022-12-24T06:51:01.829Z,9.06
2022-12-24T06:55:53.864Z,8.99
2022-12-24T07:00:44.993Z,8.95
2022-12-24T07:05:38.959Z,8.99
2022-12-24T07:10:30.696Z,9.08
2022-12-24T07:15:24.732Z,9.13
2022-12-24T07:20:17.427Z,9.19
2022-12-24T07:25:10.965Z,9.19
2022-12-24T07:30:02.187Z,9.25
2022-12-24T07:34:55.172Z,9.28
2022-12-24T07:39:46.537Z,9.22
2022-12-24T07:44:41.183Z,9.26
2022-12-24T07:49:32.387Z,9.22
2022-12-24T07:54:23.773Z,9.22
2022-12-24T07:59:16.467Z,9.19
2022-12-24T08:04:10.699Z,9.08
2022-12-24T08:09:02.640Z,9.10
2022-12-24T08:13:56.156Z,9.02
2022-12-24T08:18:47.523Z,9.05
2022-12-24T08:23:41.262Z,8.79
2022-12-24T08:28:34.319Z,8.98
2022-12-24T08:33:28.134Z,8.97
2022-12-24T08:38:22.142Z,8.94
2022-12-24T08:43:18.903Z,8.98
2022-12-24T08:48:14.076Z,8.90
2022-12-24T08:53:13.947Z,9.01
2022-12-24T08:58:06.113Z,9.08
2022-12-24T09:03:06.857Z,9.18
2022-12-24T09:07:57.783Z,9.31
2022-12-24T09:12:48.754Z,9.46
2022-12-24T09:17:41.676Z,9.55
2022-12-24T09:22:35.332Z,9.67
2022-12-24T09:27:28.049Z,9.56
2022-12-24T09:32:19.888Z,9.62
2022-12-24T09:37:16.601Z,9.55
2022-12-24T09:42:22.588Z,9.60
2022-12-24T09:47:25.598Z,9.79
2022-12-24T09:52:20.926Z,9.93
2022-12-24T09:57:39.178Z,9.98
2022-12-24T10:02:33.815Z,10.08
2022-12-24T10:07:40.019Z,10.25
2022-12-24T10:12:46.074Z,10.49
2022-12-24T10:17:53.016Z,10.48
2022-12-24T10:22:58.713Z,10.47
2022-12-24T10:27:54.841Z,10.49
2022-12-24T10:32:46.623Z,10.60
2022-12-24T10:37:38.784Z,10.48
2022-12-24T10:42:51.110Z,10.42
2022-12-24T10:47:50.270Z,10.47
2022-12-24T10:52:45.447Z,10.45
2022-12-24T10:57:41.427Z,10.45
2022-12-24T11:02:36.229Z,10.37
2022-12-24T11:07:34.797Z,10.47
2022-12-24T11:12:31.430Z,10.45
2022-12-24T11:17:26.920Z,10.47
2022-12-24T11:22:31.078Z,10.53
2022-12-24T11:27:55.273Z,10.59
2022-12-24T11:32:50.730Z,10.74
2022-12-24T11:37:42.362Z,10.73
2022-12-24T11:42:55.749Z,10.85
2022-12-24T11:47:50.529Z,10.66
2022-12-24T11:52:41.895Z,10.67
2022-12-24T11:57:42.011Z,10.70
2022-12-24T12:02:40.011Z,10.69
2022-12-24T12:07:37.353Z,10.84
2022-12-24T12:12:36.538Z,10.80
2022-12-24T12:17:41.569Z,10.94
2022-12-24T12:22:45.848Z,11.04
2022-12-24T12:27:47.026Z,10.98
2022-12-24T12:32:52.391Z,10.98
2022-12-24T12:37:59.897Z,10.83
2022-12-24T12:43:03.999Z,10.96
2022-12-24T12:48:35.101Z,11.13
2022-12-24T12:53:39.061Z,11.20
2022-12-24T12:58:35.812Z,11.27
2022-12-24T13:03:58.457Z,11.23
2022-12-24T13:09:21.377Z,11.12
2022-12-24T13:14:51.640Z,11.08
2022-12-24T13:20:12.976Z,10.84
2022-12-24T13:25:03.367Z,10.73
2022-12-24T13:30:12.152Z,10.61
2022-12-24T13:35:42.617Z,10.58
2022-12-24T13:40:33.127Z,10.58
2022-12-24T13:45:50.782Z,10.56
2022-12-24T13:50:47.203Z,10.50
2022-12-24T13:55:39.173Z,10.46
2022-12-24T14:00:47.733Z,10.47
2022-12-24T14:05:54.314Z,10.38
2022-12-24T14:11:08.733Z,10.33
2022-12-24T14:16:18.732Z,10.44
2022-12-24T14:21:22.859Z,10.40
2022-12-24T14:26:21.062Z,10.51
2022-12-24T14:31:21.637Z,10.48
2022-12-24T14:36:22.864Z,10.35
2022-12-24T14:41:30.179Z,10.40
2022-12-24T14:46:32.959Z,10.33
2022-12-24T14:51:42.702Z,10.22
2022-12-24T14:56:39.127Z,10.18
2022-12-24T15:06:55.828Z,10.03
2022-12-24T15:11:53.117Z,9.96
2022-12-24T15:16:47.174Z,9.90
2022-12-24T15:21:47.768Z,9.83
2022-12-24T15:26:55.660Z,9.75
2022-12-24T15:31:45.843Z,9.69
2022-12-24T15:36:41.446Z,9.63
2022-12-24T15:42:05.432Z,9.56
2022-12-24T15:47:08.140Z,9.54
2022-12-24T15:52:11.479Z,9.49
2022-12-24T15:57:17.683Z,9.49
2022-12-24T16:02:40.310Z,9.46
2022-12-24T16:07:51.969Z,9.39
2022-12-24T16:12:53.098Z,9.34
2022-12-24T16:17:46.933Z,9.37
2022-12-24T16:22:42.147Z,9.37
2022-12-24T16:27:33.763Z,9.33
2022-12-24T16:32:38.181Z,9.33
2022-12-24T16:37:28.770Z,9.26
2022-12-24T16:42:34.436Z,9.23
2022-12-24T16:47:34.659Z,9.18
2022-12-24T16:52:32.239Z,9.19
2022-12-24T16:57:28.141Z,9.13
2022-12-24T17:02:22.461Z,9.11
2022-12-24T17:07:18.750Z,9.11
2022-12-24T17:12:10.333Z,9.08
2022-12-24T17:17:01.459Z,9.07
2022-12-24T17:21:56.546Z,9.00
2022-12-24T17:26:53.377Z,8.92
2022-12-24T17:31:52.530Z,8.87
2022-12-24T17:36:53.408Z,8.77
2022-12-24T17:41:49.367Z,8.75
2022-12-24T17:46:46.386Z,8.69
2022-12-24T17:51:49.406Z,8.47
2022-12-24T17:56:43.824Z,8.56
2022-12-24T18:01:39.004Z,8.56
2022-12-24T18:06:35.796Z,8.55
2022-12-24T18:11:33.234Z,8.54
2022-12-24T18:16:28.281Z,8.52
2022-12-24T18:21:21.937Z,8.50
2022-12-24T18:26:18.816Z,8.55
2022-12-24T18:31:12.647Z,8.52
2022-12-24T18:36:05.363Z,8.53
2022-12-24T18:40:56.860Z,8.51
2022-12-24T18:45:58.608Z,8.46
2022-12-24T18:51:06.379Z,8.31
2022-12-24T18:55:58.327Z,8.27
2022-12-24T19:00:56.452Z,8.43
2022-12-24T19:05:52.610Z,8.43
2022-12-24T19:11:04.802Z,8.41
2022-12-24T19:15:59.540Z,8.40
2022-12-24T19:20:58.807Z,8.39
2022-12-24T19:25:51.306Z,8.40
2022-12-24T19:30:45.474Z,8.38
2022-12-24T19:35:42.192Z,8.30
2022-12-24T19:40:40.486Z,8.23
2022-12-24T19:45:36.465Z,8.30
2022-12-24T19:50:35.373Z,8.28
2022-12-24T19:55:31.362Z,8.31
2022-12-24T20:00:24.327Z,8.24
2022-12-24T20:05:21.201Z,8.06
2022-12-24T20:10:18.468Z,8.39
2022-12-24T20:15:13.867Z,8.38
2022-12-24T20:20:07.976Z,8.40
2022-12-24T20:25:07.554Z,8.43
2022-12-24T20:30:08.230Z,8.49
2022-12-24T20:35:02.532Z,8.46
2022-12-24T20:39:57.051Z,8.45
2022-12-24T20:44:54.170Z,8.52
2022-12-24T20:49:48.345Z,8.53
2022-12-24T20:54:50.050Z,8.55
2022-12-24T20:59:43.472Z,8.49
2022-12-24T21:04:44.095Z,8.41
2022-12-24T21:09:36.153Z,8.43
2022-12-24T21:14:34.078Z,8.47
2022-12-24T21:19:29.316Z,8.44
2022-12-24T21:24:31.536Z,8.36
2022-12-24T21:29:21.402Z,8.26
2022-12-24T21:34:16.753Z,8.26
2022-12-24T21:39:08.778Z,8.18
2022-12-24T21:44:03.679Z,8.15
2022-12-24T21:49:08.306Z,8.11
2022-12-24T21:54:15.615Z,8.10
2022-12-24T21:59:07.194Z,8.08
2022-12-24T22:03:58.531Z,8.03
2022-12-24T22:09:01.837Z,8.01
2022-12-24T22:13:55.843Z,7.95
2022-12-24T22:18:47.953Z,7.97
2022-12-24T22:23:43.271Z,7.86
2022-12-24T22:28:35.741Z,7.90
2022-12-24T22:33:36.750Z,7.90
2022-12-24T22:38:29.789Z,7.82
2022-12-24T22:43:21.755Z,7.88
2022-12-24T22:48:14.163Z,8.01
2022-12-24T22:53:07.163Z,8.06
2022-12-24T22:57:57.852Z,8.12
2022-12-24T23:02:49.667Z,8.09
2022-12-24T23:07:41.486Z,8.20
2022-12-24T23:12:50.510Z,8.20
2022-12-24T23:17:42.264Z,8.25
2022-12-24T23:22:33.819Z,8.27
2022-12-24T23:27:24.992Z,8.09
2022-12-24T23:32:19.148Z,8.32
2022-12-24T23:37:11.897Z,8.33
2022-12-24T23:42:03.548Z,8.22
2022-12-24T23:46:53.614Z,8.31
2022-12-24T23:51:48.325Z,8.22
2022-12-24T23:56:39.765Z,8.30
